Time;durP1;ratioP1;P1;durP2;ratioP2;P2;SDS_P1;SDS_P2;PMS_P1;PMS_P2;Temp;Humidity;BMP_temperature;BMP_pressure;BME280_temperature;BME280_humidity;BME280_pressure;Samples;Min_cycle;Max_cycle;Signal;HPM_P1;HPM_P2
2021/12/29 00:00:26;;;;;;;20.00;14.77;;;;;;;-0.21;85.99;97918.00;5087440;28;20045;-66
2021/12/29 00:03:00;;;;;;;20.90;13.48;;;;;;;0.05;85.94;97956.16;5087360;28;20041;-66
2021/12/29 00:05:33;;;;;;;24.15;14.35;;;;;;;0.06;85.81;97959.59;5087349;28;20223;-66
2021/12/29 00:08:06;;;;;;;22.80;12.82;;;;;;;0.09;85.86;97969.91;5087212;28;20044;-66
2021/12/29 00:10:38;;;;;;;22.73;14.32;;;;;;;0.10;86.06;97969.03;5087399;28;20040;-66
2021/12/29 00:13:10;;;;;;;19.23;13.13;;;;;;;0.13;85.83;97974.13;5087143;28;20040;-66
2021/12/29 00:15:44;;;;;;;22.30;13.23;;;;;;;0.13;85.83;97974.13;5087262;28;20082;-67
2021/12/29 00:18:16;;;;;;;24.60;14.98;;;;;;;0.10;85.85;97975.06;5087325;28;20044;-66
2021/12/29 00:20:48;;;;;;;22.77;14.38;;;;;;;0.09;86.06;97975.97;5087018;28;20044;-66
2021/12/29 00:23:20;;;;;;;22.65;13.52;;;;;;;0.07;86.22;97989.97;5086979;28;20243;-66
2021/12/29 00:25:53;;;;;;;20.05;12.80;;;;;;;0.07;86.16;97989.97;5087141;28;20231;-67
2021/12/29 00:28:25;;;;;;;23.92;14.55;;;;;;;0.03;86.37;97989.22;5087116;28;20048;-66
2021/12/29 00:30:59;;;;;;;26.00;14.00;;;;;;;-0.01;86.55;97990.22;5086764;28;20064;-67
2021/12/29 00:33:31;;;;;;;21.42;13.35;;;;;;;0.04;86.56;97993.53;5086720;28;20036;-66
2021/12/29 00:36:03;;;;;;;21.63;13.13;;;;;;;-0.44;86.29;97908.38;5086497;28;20044;-67
2021/12/29 00:38:35;;;;;;;22.50;13.38;;;;;;;0.08;86.34;97994.28;5086492;28;20041;-67
2021/12/29 00:41:08;;;;;;;26.42;16.95;;;;;;;0.08;86.37;97997.72;5086678;28;20041;-67
2021/12/29 00:43:40;;;;;;;23.38;14.75;;;;;;;0.11;86.05;97995.00;5086546;28;20208;-67
2021/12/29 00:46:17;;;;;;;21.83;14.07;;;;;;;0.11;86.02;97991.56;5086438;28;20126;-67
2021/12/29 00:48:49;;;;;;;23.60;13.55;;;;;;;0.10;86.16;98002.88;5086648;28;20041;-67
2021/12/29 00:51:21;;;;;;;23.35;14.27;;;;;;;0.09;86.26;97998.56;5086616;28;20041;-67
2021/12/29 00:53:54;;;;;;;25.77;13.75;;;;;;;0.09;86.40;98006.41;5086321;28;20041;-67
2021/12/29 00:56:26;;;;;;;28.88;16.38;;;;;;;0.05;86.29;98010.84;5086024;28;20044;-67
2021/12/29 00:58:58;;;;;;;24.77;14.73;;;;;;;0.07;86.43;98013.41;5086495;28;20052;-67
2021/12/29 01:01:32;;;;;;;24.02;15.48;;;;;;;0.06;86.39;98014.31;5086192;28;20044;-67
2021/12/29 01:04:04;;;;;;;27.60;15.02;;;;;;;0.04;86.47;98009.16;5086371;28;20041;-67
2021/12/29 01:06:37;;;;;;;26.25;16.75;;;;;;;0.05;86.47;98010.00;5086081;28;20045;-67
2021/12/29 01:09:09;;;;;;;29.60;16.48;;;;;;;0.02;86.47;97997.94;5085995;28;20328;-67
2021/12/29 01:11:42;;;;;;;24.05;15.52;;;;;;;0.02;86.40;98024.00;5086298;28;20162;-67
2021/12/29 01:14:21;;;;;;;23.90;15.43;;;;;;;-0.01;86.46;98011.06;5086201;28;20036;-67
2021/12/29 01:16:54;;;;;;;29.40;16.38;;;;;;;-0.06;86.64;98015.59;5086095;28;20048;-67
2021/12/29 01:19:29;;;;;;;26.85;14.60;;;;;;;-0.05;86.80;98004.25;5086143;28;20094;-67
2021/12/29 01:22:03;;;;;;;26.83;14.95;;;;;;;-0.04;86.74;98306.34;5085810;28;20086;-67
2021/12/29 01:24:35;;;;;;;24.10;14.93;;;;;;;-0.07;86.66;97998.25;5085775;28;20040;-67
2021/12/29 01:27:07;;;;;;;21.13;15.10;;;;;;;-0.07;86.72;97996.50;5085700;28;20040;-67
2021/12/29 01:29:40;;;;;;;24.83;13.77;;;;;;;-0.04;86.55;98004.22;5085567;28;20289;-67
2021/12/29 01:32:14;;;;;;;22.90;15.45;;;;;;;-0.11;86.83;97994.91;5085742;28;20098;-67
2021/12/29 01:34:47;;;;;;;23.50;13.05;;;;;;;-0.06;86.66;98005.16;5085697;28;20224;-67
2021/12/29 01:37:20;;;;;;;24.23;16.23;;;;;;;-0.11;86.90;97996.66;5085472;28;20044;-67
2021/12/29 01:39:52;;;;;;;21.63;13.63;;;;;;;-0.09;86.80;98007.88;5085527;28;20087;-67
2021/12/29 01:42:24;;;;;;;23.98;13.98;;;;;;;-0.04;86.73;97998.16;5085801;28;20040;-67
2021/12/29 01:44:56;;;;;;;23.38;15.02;;;;;;;-0.42;86.67;97934.34;5085695;28;20041;-67
2021/12/29 01:47:32;;;;;;;26.13;16.55;;;;;;;-0.06;86.73;97997.34;5085430;28;20044;-66
2021/12/29 01:50:08;;;;;;;26.17;15.00;;;;;;;-0.06;86.73;97990.38;5085402;28;20040;-67
2021/12/29 01:52:42;;;;;;;26.85;15.80;;;;;;;-0.05;86.67;97999.06;5085618;28;20040;-67
2021/12/29 01:55:16;;;;;;;27.10;14.15;;;;;;;-0.03;86.73;97997.25;5085333;28;20045;-67
2021/12/29 01:57:48;;;;;;;29.97;16.77;;;;;;;-0.03;86.67;97984.22;5085335;28;20208;-67
2021/12/29 02:00:25;;;;;;;29.08;15.35;;;;;;;-0.03;86.76;97992.03;5085309;28;20371;-67
2021/12/29 02:02:57;;;;;;;23.48;14.63;;;;;;;-0.27;86.63;97951.22;5084562;28;20064;-67
2021/12/29 02:05:25;;;;;;;25.77;15.52;;;;;;;0.02;86.56;97997.94;5085178;28;20044;-67
2021/12/29 02:07:56;;;;;;;25.67;14.73;;;;;;;0.07;86.43;97984.75;5084758;28;20052;-67
2021/12/29 02:10:31;;;;;;;24.70;13.38;;;;;;;0.07;86.41;97996.03;5085434;28;20048;-67
2021/12/29 02:13:03;;;;;;;26.95;15.35;;;;;;;0.08;86.24;97995.13;5085452;28;20040;-67
2021/12/29 02:15:35;;;;;;;24.55;14.55;;;;;;;0.10;86.36;97995.91;5085103;28;20044;-67
2021/12/29 02:18:12;;;;;;;23.50;14.48;;;;;;;-0.13;86.31;97938.56;5085159;28;20085;-67
2021/12/29 02:20:48;;;;;;;24.27;14.32;;;;;;;0.12;86.16;97973.28;5085119;28;20040;-67
2021/12/29 02:23:28;;;;;;;27.08;14.73;;;;;;;0.07;86.31;97962.16;5067878;28;20042;-67
2021/12/29 02:26:00;;;;;;;27.83;15.52;;;;;;;0.03;86.64;97971.00;5085187;28;20045;-67
2021/12/29 02:28:35;;;;;;;26.35;15.77;;;;;;;0.02;86.61;97971.03;5085096;28;20228;-67
2021/12/29 02:31:07;;;;;;;23.67;13.77;;;;;;;-0.79;86.57;97860.13;5084867;28;20321;-67
2021/12/29 02:33:40;;;;;;;22.35;13.90;;;;;;;0.08;86.60;97992.50;5085231;28;20090;-68
2021/12/29 02:36:16;;;;;;;25.25;14.68;;;;;;;0.10;86.46;97995.06;5084881;28;20098;-67
2021/12/29 02:38:52;;;;;;;27.00;15.73;;;;;;;0.14;86.54;97994.91;5085148;28;20097;-67
2021/12/29 02:41:26;;;;;;;26.73;15.20;;;;;;;0.15;86.22;98001.81;5084902;28;20197;-67
2021/12/29 02:44:00;;;;;;;27.25;14.90;;;;;;;0.18;86.51;97991.28;5084929;28;20056;-67
2021/12/29 02:46:35;;;;;;;25.35;13.57;;;;;;;0.22;86.49;97987.69;5084829;28;20052;-68
2021/12/29 02:49:07;;;;;;;26.70;14.93;;;;;;;0.26;86.22;97991.03;5084771;28;20040;-67
2021/12/29 02:51:41;;;;;;;19.35;13.27;;;;;;;0.23;86.09;97988.53;5085084;28;20040;-66
2021/12/29 02:54:13;;;;;;;22.25;14.50;;;;;;;0.23;86.05;97988.53;5084801;28;20083;-66
2021/12/29 02:56:47;;;;;;;25.48;15.27;;;;;;;0.21;86.10;97992.94;5084876;28;20044;-66
2021/12/29 02:59:19;;;;;;;26.67;15.25;;;;;;;0.18;86.15;97993.03;5084686;28;20063;-66
2021/12/29 03:01:52;;;;;;;21.77;13.90;;;;;;;-0.02;86.60;97959.88;5084967;28;20037;-66
2021/12/29 03:04:24;;;;;;;24.92;14.77;;;;;;;0.20;86.50;97991.25;5084904;28;20044;-66
2021/12/29 03:06:57;;;;;;;26.02;15.15;;;;;;;0.16;86.62;97994.84;5084911;28;20048;-66
2021/12/29 03:09:30;;;;;;;27.05;15.15;;;;;;;-0.13;86.54;97936.81;5084636;28;20044;-66
2021/12/29 03:12:02;;;;;;;33.40;17.67;;;;;;;-1.69;86.10;97691.53;5084836;28;20049;-66
2021/12/29 03:14:34;;;;;;;25.58;15.95;;;;;;;0.15;86.54;98001.81;5084549;28;20036;-66
2021/12/29 03:17:06;;;;;;;29.15;15.73;;;;;;;0.12;86.61;98004.53;5084450;28;20067;-66
2021/12/29 03:19:39;;;;;;;26.88;15.82;;;;;;;0.09;86.77;98006.41;5085453;28;20047;-66
2021/12/29 03:22:12;;;;;;;26.20;15.95;;;;;;;0.06;86.74;98001.28;5088316;28;20036;-66
2021/12/29 03:24:45;;;;;;;30.90;16.58;;;;;;;0.08;87.08;98017.72;5070741;28;20097;-67
2021/12/29 03:27:18;;;;;;;24.27;14.68;;;;;;;0.07;86.87;98013.41;5070767;28;20247;-67
2021/12/29 03:29:51;;;;;;;25.90;15.75;;;;;;;-0.22;86.87;97963.16;5087777;28;20037;-67
2021/12/29 03:32:37;;;;;;;25.27;14.15;;;;;;;0.08;86.79;98020.31;5087830;28;20044;-66
2021/12/29 03:35:10;;;;;;;26.10;16.92;;;;;;;0.02;86.83;98018.78;5087813;28;20040;-67
2021/12/29 03:37:44;;;;;;;22.98;14.80;;;;;;;0.02;87.22;98026.59;5087738;28;20070;-67
2021/12/29 03:40:16;;;;;;;26.97;14.43;;;;;;;0.03;87.02;98024.84;5087760;28;20040;-66
2021/12/29 03:42:48;;;;;;;22.35;14.55;;;;;;;0.01;86.94;98022.28;5087914;28;20379;-66
2021/12/29 03:45:21;;;;;;;23.60;13.88;;;;;;;-0.01;86.88;98041.47;5087903;28;20090;-66
2021/12/29 03:47:53;;;;;;;21.30;13.40;;;;;;;0.01;87.03;98022.28;5087930;28;20056;-66
2021/12/29 03:50:24;;;;;;;15.60;11.10;;;;;;;0.02;86.98;98023.13;5087552;28;20064;-67
2021/12/29 03:52:55;;;;;;;23.13;13.25;;;;;;;0.02;86.89;98025.75;5087816;28;20045;-66
2021/12/29 03:55:24;;;;;;;15.60;10.15;;;;;;;-0.00;86.79;98024.94;5087690;28;20106;-67
2021/12/29 03:57:54;;;;;;;17.90;11.88;;;;;;;-0.02;86.94;98029.34;5087351;28;20249;-67
2021/12/29 04:00:25;;;;;;;18.92;11.40;;;;;;;-0.07;86.80;98032.97;5087561;28;20059;-67
2021/12/29 04:02:55;;;;;;;15.25;9.45;;;;;;;-0.02;86.87;98022.38;5087814;28;20048;-66
2021/12/29 04:05:25;;;;;;;14.52;9.25;;;;;;;-0.04;86.63;98019.00;5088050;28;20041;-67
2021/12/29 04:07:57;;;;;;;13.82;8.55;;;;;;;-0.04;86.62;98013.78;5088865;28;20112;-67
2021/12/29 04:10:26;;;;;;;16.08;10.65;;;;;;;-0.05;86.70;98017.28;5088425;28;20309;-66
2021/12/29 04:12:56;;;;;;;12.98;8.23;;;;;;;-0.03;86.63;98031.09;5088680;28;20048;-66
2021/12/29 04:15:27;;;;;;;13.77;8.55;;;;;;;0.02;86.67;98036.16;5088922;28;20040;-66
2021/12/29 04:17:58;;;;;;;13.15;7.95;;;;;;;0.01;86.57;98042.28;5088430;28;20075;-66
2021/12/29 04:23:28;;;;;;;12.77;8.70;;;;;;;-0.04;86.53;98030.25;5088525;28;20059;-66
2021/12/29 04:26:03;;;;;;;14.95;9.95;;;;;;;-0.58;86.45;97941.81;5088388;28;20036;-66
2021/12/29 04:28:35;;;;;;;12.02;8.38;;;;;;;-0.05;86.77;98038.13;5070821;28;20086;-67
2021/12/29 04:31:10;;;;;;;13.98;10.02;;;;;;;-0.06;86.62;98034.66;5087094;28;20098;-67
2021/12/29 04:33:42;;;;;;;14.02;9.02;;;;;;;-0.05;86.77;98030.31;5087882;28;20048;-67
2021/12/29 04:36:14;;;;;;;15.88;9.85;;;;;;;0.01;86.52;98029.25;5086674;28;20045;-67
2021/12/29 04:38:48;;;;;;;13.10;9.73;;;;;;;0.02;86.51;98031.81;5086627;28;20086;-66
2021/12/29 04:41:21;;;;;;;13.00;8.35;;;;;;;0.03;86.47;98045.69;5086973;28;20086;-66
2021/12/29 04:43:53;;;;;;;13.57;9.02;;;;;;;-0.01;86.64;98036.25;5086690;28;20086;-66
2021/12/29 04:46:35;;;;;;;13.20;8.75;;;;;;;0.03;86.47;98043.91;5087279;28;20186;-66
2021/12/29 04:49:12;;;;;;;14.02;8.75;;;;;;;0.03;86.61;98037.88;5087970;28;20082;-66
2021/12/29 04:51:51;;;;;;;12.23;8.32;;;;;;;0.04;86.65;98042.16;5086427;28;20082;-66
2021/12/29 04:54:24;;;;;;;17.17;9.18;;;;;;;0.04;86.53;98042.16;5086570;28;20041;-66
2021/12/29 04:56:57;;;;;;;12.32;9.05;;;;;;;0.03;86.60;98037.88;5086252;28;20094;-66
2021/12/29 04:59:30;;;;;;;11.20;8.82;;;;;;;-1.07;86.47;97877.50;5086485;28;20044;-66
2021/12/29 05:02:02;;;;;;;16.02;9.68;;;;;;;0.03;86.57;98045.69;5086195;28;20247;-66
2021/12/29 05:04:44;;;;;;;13.25;9.13;;;;;;;0.06;86.34;98051.63;5086134;28;20067;-66
2021/12/29 05:10:09;;;;;;;12.00;8.60;;;;;;;0.08;86.31;98055.03;5086066;28;20094;-66
2021/12/29 05:12:41;;;;;;;13.15;9.52;;;;;;;0.09;86.26;98056.75;5086304;28;20134;-66
2021/12/29 05:15:13;;;;;;;11.52;7.47;;;;;;;0.11;86.35;98049.72;5085954;28;20090;-67
2021/12/29 05:17:45;;;;;;;11.60;7.50;;;;;;;0.10;86.48;98048.03;5085881;28;20307;-67
2021/12/29 05:20:17;;;;;;;14.88;9.23;;;;;;;0.09;86.49;98054.13;5086098;28;20048;-66
2021/12/29 05:22:49;;;;;;;13.68;9.68;;;;;;;0.12;86.48;98055.78;5086584;28;20098;-66
2021/12/29 05:25:23;;;;;;;13.63;9.05;;;;;;;0.13;86.34;98052.28;5085751;28;20087;-66
2021/12/29 05:27:56;;;;;;;15.07;9.80;;;;;;;0.15;86.37;98055.69;5085957;28;20045;-66
2021/12/29 05:30:29;;;;;;;14.25;8.93;;;;;;;0.17;86.31;98059.09;5085513;28;20064;-66
2021/12/29 05:32:59;;;;;;;13.40;9.75;;;;;;;0.19;86.32;98054.69;5085837;28;20162;-66
2021/12/29 05:35:29;;;;;;;15.50;7.93;;;;;;;0.23;86.14;98056.28;5085879;28;20078;-66
2021/12/29 05:38:00;;;;;;;15.82;10.23;;;;;;;-0.10;86.31;98009.63;5085736;28;20044;-66
2021/12/29 05:40:31;;;;;;;14.05;9.43;;;;;;;0.20;86.31;98064.19;5085755;28;20044;-66
2021/12/29 05:43:00;;;;;;;17.25;11.80;;;;;;;0.19;86.63;98054.69;5085723;28;20289;-66
2021/12/29 05:45:30;;;;;;;16.00;10.32;;;;;;;0.19;86.45;98059.88;5085719;28;20043;-67
2021/12/29 05:48:01;;;;;;;13.90;9.73;;;;;;;-0.37;86.43;98188.41;5085416;28;20046;-67
2021/12/29 05:50:31;;;;;;;15.05;9.48;;;;;;;0.18;86.61;98064.25;5085707;28;20103;-66
2021/12/29 05:53:03;;;;;;;14.88;10.15;;;;;;;0.18;86.69;98068.59;5085429;28;20036;-66
2021/12/29 05:55:33;;;;;;;14.82;9.93;;;;;;;0.22;86.46;98073.66;5085255;28;20217;-66
2021/12/29 05:58:01;;;;;;;16.95;11.73;;;;;;;0.21;86.67;98079.78;5085233;28;20040;-66
2021/12/29 06:00:33;;;;;;;14.75;10.27;;;;;;;0.21;86.70;98079.78;5085277;28;20041;-66
2021/12/29 06:03:02;;;;;;;13.60;8.57;;;;;;;0.21;86.60;98077.16;5085240;28;20036;-66
2021/12/29 06:05:32;;;;;;;17.63;10.75;;;;;;;0.20;86.75;98078.06;5085593;28;20251;-66
2021/12/29 06:08:02;;;;;;;15.57;10.30;;;;;;;0.22;86.61;98076.28;5085272;28;20067;-66
2021/12/29 06:10:34;;;;;;;15.70;9.48;;;;;;;0.24;86.39;98079.66;5085216;28;20041;-66
2021/12/29 06:13:03;;;;;;;13.63;10.50;;;;;;;0.27;86.51;98086.53;5085435;28;20044;-66
2021/12/29 06:15:33;;;;;;;12.85;9.02;;;;;;;0.26;86.55;98090.91;5085131;28;20315;-66
2021/12/29 06:18:04;;;;;;;15.30;10.77;;;;;;;0.24;86.82;98086.63;5085084;28;20095;-66
2021/12/29 06:20:38;;;;;;;14.80;9.57;;;;;;;-0.70;86.54;97961.28;5085110;28;20044;-67
2021/12/29 06:23:12;;;;;;;16.13;9.80;;;;;;;0.46;86.52;98123.25;5085087;28;20041;-66
2021/12/29 06:25:46;;;;;;;17.60;10.27;;;;;;;0.28;86.85;98094.31;5085067;28;20044;-66
2021/12/29 06:28:18;;;;;;;13.80;9.75;;;;;;;0.29;86.78;98095.16;5085273;28;20094;-67
2021/12/29 06:30:50;;;;;;;14.30;9.82;;;;;;;0.31;86.72;98095.09;5084928;28;20178;-67
2021/12/29 06:33:22;;;;;;;17.30;11.90;;;;;;;0.30;86.76;98094.25;5085243;28;20045;-67
2021/12/29 06:35:55;;;;;;;16.23;10.75;;;;;;;-0.40;86.62;97980.25;5085261;28;20048;-66
2021/12/29 06:38:27;;;;;;;15.93;10.77;;;;;;;0.32;86.87;98110.69;5084836;28;20067;-66
2021/12/29 06:41:00;;;;;;;13.07;9.48;;;;;;;0.36;86.64;98101.00;5067442;28;20044;-67
2021/12/29 06:43:33;;;;;;;15.30;9.77;;;;;;;0.38;86.56;98107.03;5084892;28;20232;-67
2021/12/29 06:46:05;;;;;;;16.33;10.35;;;;;;;0.39;86.73;98106.13;5084823;28;20086;-67
2021/12/29 06:48:37;;;;;;;14.90;8.10;;;;;;;0.42;86.60;98100.78;5067652;28;20103;-67
2021/12/29 06:51:09;;;;;;;15.90;9.35;;;;;;;0.43;86.66;98094.69;5085104;28;20040;-67
2021/12/29 06:53:41;;;;;;;14.75;9.48;;;;;;;0.46;86.49;98105.84;5085072;28;20040;-66
2021/12/29 06:56:15;;;;;;;14.80;9.57;;;;;;;0.47;86.53;98106.69;5088617;28;20090;-66
2021/12/29 06:58:47;;;;;;;14.15;9.45;;;;;;;0.47;86.54;98106.69;5088741;28;20045;-66
2021/12/29 07:01:19;;;;;;;13.98;9.88;;;;;;;0.46;86.57;98107.59;5088723;28;20040;-67
2021/12/29 07:03:51;;;;;;;14.55;10.23;;;;;;;0.48;86.44;98118.84;5088401;28;20036;-67
2021/12/29 07:06:24;;;;;;;15.95;9.75;;;;;;;0.51;86.41;98111.75;5088422;28;20102;-66
2021/12/29 07:08:56;;;;;;;14.13;9.43;;;;;;;0.55;86.47;98128.16;5088306;28;20067;-66
2021/12/29 07:11:29;;;;;;;18.27;9.45;;;;;;;0.54;86.60;98121.22;5088297;28;20045;-67
2021/12/29 07:14:03;;;;;;;16.70;11.68;;;;;;;0.55;86.33;98131.59;5088296;28;20098;-67
2021/12/29 07:16:35;;;;;;;14.88;10.60;;;;;;;0.33;86.37;98083.72;5088129;28;20040;-67
2021/12/29 07:19:07;;;;;;;17.30;10.95;;;;;;;0.60;86.46;98121.88;5088138;28;20098;-67
2021/12/29 07:21:40;;;;;;;17.25;10.98;;;;;;;0.59;86.84;98124.53;5088363;28;20082;-67
2021/12/29 07:24:12;;;;;;;14.98;10.13;;;;;;;0.64;86.69;98124.38;5088080;28;20044;-67
2021/12/29 07:26:46;;;;;;;14.35;9.55;;;;;;;-0.20;86.77;98002.19;5071636;28;20277;-67
2021/12/29 07:29:18;;;;;;;13.53;9.33;;;;;;;0.67;86.67;98121.66;5087952;28;20048;-67
2021/12/29 07:31:51;;;;;;;15.07;9.85;;;;;;;0.70;86.63;98132.84;5087798;28;20110;-66
2021/12/29 07:34:24;;;;;;;16.33;10.73;;;;;;;0.75;86.48;98136.13;5088073;28;20040;-67
2021/12/29 07:36:56;;;;;;;17.13;12.15;;;;;;;0.77;86.74;98143.91;5088103;28;20036;-66
2021/12/29 07:39:28;;;;;;;12.43;9.30;;;;;;;0.80;86.56;98138.56;5087846;28;20086;-67
2021/12/29 07:42:02;;;;;;;15.95;9.35;;;;;;;0.83;86.45;98147.16;5070283;28;20231;-67
2021/12/29 07:44:35;;;;;;;17.90;13.23;;;;;;;0.86;86.17;98154.84;5087937;28;20040;-67
2021/12/29 07:47:10;;;;;;;19.50;13.65;;;;;;;0.86;86.51;98157.47;5087567;28;20086;-67
2021/12/29 07:49:42;;;;;;;18.00;11.40;;;;;;;0.92;86.67;98154.66;5087826;28;20049;-67
2021/12/29 07:52:15;;;;;;;15.73;10.70;;;;;;;0.97;86.66;98159.69;5087427;28;20040;-67
2021/12/29 07:54:47;;;;;;;19.42;11.32;;;;;;;0.74;86.68;98118.78;5087509;28;20247;-66
2021/12/29 07:57:20;;;;;;;17.52;12.10;;;;;;;1.06;86.88;98151.53;5087398;28;20048;-66
2021/12/29 07:59:52;;;;;;;16.20;11.80;;;;;;;1.11;86.76;98154.84;5087191;28;20102;-66
2021/12/29 08:02:27;;;;;;;14.50;9.68;;;;;;;1.14;86.85;98159.09;5087494;28;20182;-66
2021/12/29 08:04:59;;;;;;;;;;;;;;;1.17;87.13;98161.59;5087675;28;20289;-67
2021/12/29 08:07:31;;;;;;;14.20;9.45;;;;;;;1.21;87.03;98160.56;5086282;28;19916;-66
2021/12/29 08:10:04;;;;;;;14.35;11.40;;;;;;;1.26;87.08;98161.25;5087197;28;20355;-66
2021/12/29 08:12:38;;;;;;;14.07;9.80;;;;;;;1.32;87.03;98157.56;5087482;28;20040;-67
2021/12/29 08:15:11;;;;;;;14.02;10.00;;;;;;;1.39;87.00;98159.03;5087387;28;20040;-67
2021/12/29 08:17:44;;;;;;;15.82;11.32;;;;;;;1.42;87.18;98159.78;5087075;28;20040;-66
2021/12/29 08:20:16;;;;;;;19.40;13.25;;;;;;;1.51;87.36;98159.44;5087314;28;20044;-67
2021/12/29 08:22:48;;;;;;;14.27;10.27;;;;;;;1.62;87.10;98166.03;5087142;28;20048;-66
2021/12/29 08:25:21;;;;;;;17.17;11.40;;;;;;;1.68;87.14;98169.28;5087178;28;20086;-67
2021/12/29 08:27:54;;;;;;;19.92;13.40;;;;;;;1.71;87.00;98161.31;5086866;28;20040;-68
2021/12/29 08:30:28;;;;;;;16.50;11.88;;;;;;;0.64;86.81;98044.38;5085828;28;20110;-68
2021/12/29 08:33:00;;;;;;;19.63;13.05;;;;;;;1.50;86.59;98131.63;5086787;28;20044;-67
2021/12/29 08:35:33;;;;;;;18.33;11.48;;;;;;;1.77;86.73;98171.53;5086791;28;20044;-68
2021/12/29 08:38:05;;;;;;;16.65;11.93;;;;;;;1.93;86.75;98171.78;5086608;28;20044;-68
2021/12/29 08:40:38;;;;;;;17.95;12.60;;;;;;;2.14;87.04;98170.09;5086684;28;20041;-67
2021/12/29 08:43:12;;;;;;;19.25;12.70;;;;;;;2.39;86.96;98170.78;5086637;28;20074;-67
2021/12/29 08:45:42;;;;;;;18.77;12.07;;;;;;;2.61;86.79;98170.75;5086567;28;20036;-67
2021/12/29 08:48:11;;;;;;;22.70;13.70;;;;;;;2.65;86.33;98174.94;5086310;28;20052;-67
2021/12/29 08:50:41;;;;;;;16.85;12.07;;;;;;;2.75;85.77;98157.94;5086711;28;20319;-67
2021/12/29 08:53:12;;;;;;;16.55;12.15;;;;;;;2.82;85.53;98167.22;5086704;28;20239;-66
2021/12/29 08:55:46;;;;;;;16.92;11.63;;;;;;;2.87;85.31;98165.28;5085353;28;20036;-67
2021/12/29 08:58:18;;;;;;;15.68;11.57;;;;;;;3.00;84.94;98170.81;5086089;28;20048;-68
2021/12/29 09:00:46;;;;;;;20.35;13.43;;;;;;;3.08;84.59;98178.34;5086497;28;20041;-67
2021/12/29 09:03:17;;;;;;;18.73;13.27;;;;;;;3.14;84.26;98184.16;5086208;28;20297;-67
2021/12/29 09:05:47;;;;;;;19.33;12.23;;;;;;;2.77;84.15;98129.09;5086505;28;20037;-68
2021/12/29 09:08:17;;;;;;;21.02;13.68;;;;;;;3.35;84.21;98184.13;5086097;28;20043;-67
2021/12/29 09:10:48;;;;;;;22.77;14.50;;;;;;;3.44;84.16;98200.28;5086036;28;20044;-67
2021/12/29 09:13:20;;;;;;;16.58;12.43;;;;;;;3.48;83.73;98191.38;5086138;28;20036;-68
2021/12/29 09:15:49;;;;;;;18.55;13.38;;;;;;;3.31;83.78;98161.63;5085914;28;20063;-67
2021/12/29 09:18:18;;;;;;;15.90;11.93;;;;;;;3.53;83.25;98199.03;5085776;28;20082;-68
2021/12/29 09:20:49;;;;;;;17.65;12.65;;;;;;;3.50;83.14;98202.63;5086105;28;20037;-67
2021/12/29 09:23:19;;;;;;;21.00;12.65;;;;;;;3.51;82.91;98193.00;5086188;28;20040;-68
2021/12/29 09:25:50;;;;;;;15.38;12.50;;;;;;;3.51;83.00;98195.63;5085772;28;20221;-67
2021/12/29 09:28:21;;;;;;;15.68;11.05;;;;;;;3.51;82.94;98186.00;5085699;28;20082;-68
2021/12/29 09:30:51;;;;;;;16.90;12.75;;;;;;;3.54;83.00;98187.63;5085613;28;20102;-67
2021/12/29 09:33:21;;;;;;;22.45;12.95;;;;;;;2.61;82.62;98037.34;5085737;28;20064;-68
2021/12/29 09:35:52;;;;;;;21.42;13.73;;;;;;;3.63;82.73;98191.59;5085859;28;20040;-68
2021/12/29 09:38:21;;;;;;;18.50;13.35;;;;;;;3.70;82.93;98186.00;5085509;28;20048;-68
2021/12/29 09:40:51;;;;;;;17.75;12.77;;;;;;;3.03;82.75;98031.97;5085740;28;20040;-68
2021/12/29 09:43:22;;;;;;;17.17;13.02;;;;;;;4.00;82.64;98178.50;5085669;28;20103;-68
2021/12/29 09:45:52;;;;;;;20.65;13.30;;;;;;;4.19;82.84;98157.47;5085442;28;20201;-68
2021/12/29 09:48:22;;;;;;;20.33;13.10;;;;;;;4.69;82.69;98176.00;5085515;28;20097;-68
2021/12/29 09:50:54;;;;;;;20.77;13.55;;;;;;;4.98;81.90;98182.44;5085131;28;20067;-68
2021/12/29 09:53:22;;;;;;;22.95;13.90;;;;;;;5.30;81.29;98182.56;5067885;28;20056;-68
2021/12/29 09:55:52;;;;;;;22.00;12.95;;;;;;;5.62;80.10;98178.22;5085251;28;20348;-68
2021/12/29 09:58:24;;;;;;;24.40;14.40;;;;;;;5.65;78.78;98176.28;5085276;28;20037;-68
2021/12/29 10:00:56;;;;;;;21.70;14.55;;;;;;;5.62;78.35;98175.59;5085250;28;20051;-68
2021/12/29 10:03:30;;;;;;;19.05;13.20;;;;;;;5.56;78.29;98170.66;5085572;28;20040;-68
2021/12/29 10:06:07;;;;;;;20.70;14.02;;;;;;;5.59;78.85;98194.16;5085255;28;20054;-68
2021/12/29 10:08:40;;;;;;;17.17;12.27;;;;;;;5.66;78.99;98174.50;5085505;28;20082;-68
2021/12/29 10:11:16;;;;;;;19.95;14.18;;;;;;;5.71;78.81;98173.31;5085227;28;20044;-67
2021/12/29 10:13:50;;;;;;;23.33;16.58;;;;;;;5.74;78.91;98177.56;5085372;28;20066;-67
2021/12/29 10:16:25;;;;;;;19.90;14.18;;;;;;;5.81;78.57;98178.91;5085161;28;20040;-68
2021/12/29 10:19:01;;;;;;;18.70;13.52;;;;;;;5.75;78.65;98179.25;5067817;28;20056;-68
2021/12/29 10:21:36;;;;;;;21.30;15.15;;;;;;;5.82;79.02;98188.50;5085359;28;20048;-68
2021/12/29 10:24:08;;;;;;;18.88;13.68;;;;;;;5.75;78.69;98181.88;5085057;28;20285;-68
2021/12/29 10:26:43;;;;;;;22.67;15.25;;;;;;;5.81;78.94;98191.22;5084636;28;20044;-68
2021/12/29 10:29:19;;;;;;;22.40;15.63;;;;;;;5.76;78.70;98189.69;5084999;28;20048;-68
2021/12/29 10:31:56;;;;;;;25.88;18.30;;;;;;;5.74;79.25;98198.59;5088389;28;20060;-68
2021/12/29 10:34:30;;;;;;;20.10;15.48;;;;;;;4.94;79.32;98110.00;5089235;28;20044;-67
2021/12/29 10:37:06;;;;;;;7.43;6.15;;;;;;;5.88;80.39;98197.84;5089233;28;20036;-67
2021/12/29 10:39:41;;;;;;;2.78;2.08;;;;;;;5.05;79.94;98033.28;5088567;28;20049;-68
2021/12/29 10:42:15;;;;;;;;;;;;;;;6.24;79.98;98205.50;5089627;28;20049;-68
2021/12/29 10:44:51;;;;;;;2.42;1.77;;;;;;;6.31;79.89;98202.44;5088930;28;20022;-68
2021/12/29 10:47:25;;;;;;;2.22;1.40;;;;;;;6.46;79.64;98192.81;5089049;28;20044;-68
2021/12/29 10:50:00;;;;;;;1.80;1.23;;;;;;;6.54;79.02;98187.97;5088714;28;20090;-68
2021/12/29 10:52:35;;;;;;;1.88;1.25;;;;;;;5.63;78.69;98074.78;5088713;28;20089;-68
2021/12/29 10:55:11;;;;;;;2.30;1.33;;;;;;;6.64;78.45;98204.09;5088657;28;20285;-67
2021/12/29 10:57:44;;;;;;;5.28;1.63;;;;;;;6.66;78.21;98242.56;5088747;28;20094;-68
2021/12/29 11:00:19;;;;;;;1.83;1.40;;;;;;;6.68;78.68;98226.66;5088343;28;20044;-67
2021/12/29 11:02:52;;;;;;;2.80;1.45;;;;;;;6.64;78.46;98212.81;5088357;28;20097;-67
2021/12/29 11:05:24;;;;;;;2.72;1.85;;;;;;;6.68;78.87;98219.63;5088528;28;20094;-68
2021/12/29 11:08:05;;;;;;;2.40;1.48;;;;;;;6.67;78.37;98223.19;5088658;28;20082;-68
2021/12/29 11:10:38;;;;;;;2.17;1.40;;;;;;;6.73;78.48;98256.22;5088503;28;20044;-67
2021/12/29 11:13:12;;;;;;;2.25;1.60;;;;;;;6.72;78.34;98236.94;5088038;28;20215;-68
2021/12/29 11:15:52;;;;;;;3.37;1.50;;;;;;;6.77;78.42;98238.47;5088454;28;20040;-68
2021/12/29 11:18:24;;;;;;;2.38;1.25;;;;;;;6.86;78.22;98230.91;5088138;28;20371;-68
2021/12/29 11:20:55;;;;;;;2.22;1.30;;;;;;;7.00;77.99;98216.94;5088041;28;20041;-68
2021/12/29 11:23:25;;;;;;;2.35;1.48;;;;;;;7.11;77.61;98229.47;5088149;28;20040;-67
2021/12/29 11:25:55;;;;;;;2.80;1.70;;;;;;;7.15;77.56;98231.00;5087896;28;20306;-67
2021/12/29 11:28:27;;;;;;;4.25;1.60;;;;;;;7.37;77.18;98227.03;5088066;28;20048;-68
2021/12/29 11:31:01;;;;;;;2.97;1.50;;;;;;;7.58;77.00;98237.22;5087439;28;20049;-67
2021/12/29 11:33:32;;;;;;;2.45;1.55;;;;;;;7.57;76.27;98239.00;5088299;28;20040;-68
2021/12/29 11:36:03;;;;;;;4.20;1.55;;;;;;;7.20;75.83;98197.31;5070508;28;20044;-67
2021/12/29 11:38:31;;;;;;;2.05;1.30;;;;;;;7.38;75.62;98204.16;5087976;28;20087;-68
2021/12/29 11:41:04;;;;;;;2.30;1.30;;;;;;;7.60;75.32;98240.59;5087473;28;20044;-68
2021/12/29 11:43:32;;;;;;;2.35;1.40;;;;;;;7.50;75.80;98245.59;5087416;28;20064;-68
2021/12/29 11:46:03;;;;;;;2.40;1.50;;;;;;;7.41;76.07;98243.50;5070416;28;20052;-68
2021/12/29 11:48:32;;;;;;;3.40;1.40;;;;;;;7.41;76.31;98240.00;5087570;28;20362;-68
2021/12/29 11:51:05;;;;;;;2.08;1.40;;;;;;;7.13;76.07;98206.53;5087527;28;20051;-67
2021/12/29 11:53:44;;;;;;;3.50;2.55;;;;;;;7.29;76.79;98249.47;5087334;28;20075;-68
2021/12/29 11:56:19;;;;;;;3.30;2.00;;;;;;;7.21;77.10;98256.97;5087313;28;20040;-68
2021/12/29 11:58:52;;;;;;;2.00;1.27;;;;;;;7.09;77.17;98257.69;5087541;28;20041;-68